sensor_id;sensor_type;location;lat;lon;timestamp;P1;durP1;ratioP1;P2;durP2;ratioP2
10216;SDS011;5152;59.674;16.838;2023-04-28T00:01:36;1.00;;;0.77;;
10216;SDS011;5152;59.674;16.838;2023-04-28T00:04:03;1.10;;;1.00;;
10216;SDS011;5152;59.674;16.838;2023-04-28T00:06:30;1.27;;;1.10;;
10216;SDS011;5152;59.674;16.838;2023-04-28T00:08:57;1.30;;;1.20;;
10216;SDS011;5152;59.674;16.838;2023-04-28T00:11:24;1.60;;;1.10;;
10216;SDS011;5152;59.674;16.838;2023-04-28T00:13:51;1.10;;;1.00;;
10216;SDS011;5152;59.674;16.838;2023-04-28T00:16:19;1.83;;;1.33;;
10216;SDS011;5152;59.674;16.838;2023-04-28T00:18:46;1.73;;;0.80;;
10216;SDS011;5152;59.674;16.838;2023-04-28T00:21:13;1.40;;;1.07;;
10216;SDS011;5152;59.674;16.838;2023-04-28T00:23:41;1.63;;;1.20;;
10216;SDS011;5152;59.674;16.838;2023-04-28T00:26:08;1.13;;;1.00;;
10216;SDS011;5152;59.674;16.838;2023-04-28T00:28:36;1.23;;;1.13;;
10216;SDS011;5152;59.674;16.838;2023-04-28T00:31:08;1.00;;;0.90;;
10216;SDS011;5152;59.674;16.838;2023-04-28T00:33:37;0.63;;;0.60;;
10216;SDS011;5152;59.674;16.838;2023-04-28T00:36:05;1.43;;;1.30;;
10216;SDS011;5152;59.674;16.838;2023-04-28T00:38:32;1.00;;;0.83;;
10216;SDS011;5152;59.674;16.838;2023-04-28T00:40:59;2.10;;;1.30;;
10216;SDS011;5152;59.674;16.838;2023-04-28T00:43:26;1.10;;;0.90;;
10216;SDS011;5152;59.674;16.838;2023-04-28T00:45:52;1.37;;;1.13;;
10216;SDS011;5152;59.674;16.838;2023-04-28T00:48:19;0.87;;;0.80;;
10216;SDS011;5152;59.674;16.838;2023-04-28T00:50:48;1.10;;;0.90;;
10216;SDS011;5152;59.674;16.838;2023-04-28T00:53:16;2.07;;;0.93;;
10216;SDS011;5152;59.674;16.838;2023-04-28T00:55:42;1.23;;;1.03;;
10216;SDS011;5152;59.674;16.838;2023-04-28T00:58:10;0.73;;;0.73;;
10216;SDS011;5152;59.674;16.838;2023-04-28T01:00:37;1.00;;;0.70;;
10216;SDS011;5152;59.674;16.838;2023-04-28T01:03:03;1.47;;;0.93;;
10216;SDS011;5152;59.674;16.838;2023-04-28T01:05:30;1.20;;;0.77;;
10216;SDS011;5152;59.674;16.838;2023-04-28T01:07:59;1.13;;;0.93;;
10216;SDS011;5152;59.674;16.838;2023-04-28T01:10:25;1.60;;;0.90;;
10216;SDS011;5152;59.674;16.838;2023-04-28T01:12:52;1.00;;;0.80;;
10216;SDS011;5152;59.674;16.838;2023-04-28T01:15:19;1.30;;;0.83;;
10216;SDS011;5152;59.674;16.838;2023-04-28T01:17:46;0.90;;;0.80;;
10216;SDS011;5152;59.674;16.838;2023-04-28T01:20:13;1.20;;;0.80;;
10216;SDS011;5152;59.674;16.838;2023-04-28T01:22:40;1.00;;;0.90;;
10216;SDS011;5152;59.674;16.838;2023-04-28T01:25:09;2.13;;;1.00;;
10216;SDS011;5152;59.674;16.838;2023-04-28T01:27:35;0.37;;;0.37;;
10216;SDS011;5152;59.674;16.838;2023-04-28T01:30:02;1.40;;;0.90;;
10216;SDS011;5152;59.674;16.838;2023-04-28T01:32:30;0.93;;;0.83;;
10216;SDS011;5152;59.674;16.838;2023-04-28T01:34:57;0.80;;;0.80;;
10216;SDS011;5152;59.674;16.838;2023-04-28T01:37:24;1.43;;;0.97;;
10216;SDS011;5152;59.674;16.838;2023-04-28T01:39:51;1.63;;;1.10;;
10216;SDS011;5152;59.674;16.838;2023-04-28T01:42:19;1.17;;;0.93;;
10216;SDS011;5152;59.674;16.838;2023-04-28T01:44:46;1.10;;;0.80;;
10216;SDS011;5152;59.674;16.838;2023-04-28T01:47:13;0.70;;;0.70;;
10216;SDS011;5152;59.674;16.838;2023-04-28T01:49:40;0.73;;;0.70;;
10216;SDS011;5152;59.674;16.838;2023-04-28T01:52:07;0.87;;;0.80;;
10216;SDS011;5152;59.674;16.838;2023-04-28T01:54:33;1.37;;;0.60;;
10216;SDS011;5152;59.674;16.838;2023-04-28T01:57:00;0.73;;;0.70;;
10216;SDS011;5152;59.674;16.838;2023-04-28T01:59:29;0.70;;;0.67;;
10216;SDS011;5152;59.674;16.838;2023-04-28T02:01:55;0.80;;;0.80;;
10216;SDS011;5152;59.674;16.838;2023-04-28T02:04:22;2.53;;;0.80;;
10216;SDS011;5152;59.674;16.838;2023-04-28T02:06:49;1.13;;;0.80;;
10216;SDS011;5152;59.674;16.838;2023-04-28T02:09:16;0.80;;;0.80;;
10216;SDS011;5152;59.674;16.838;2023-04-28T02:11:43;0.73;;;0.73;;
10216;SDS011;5152;59.674;16.838;2023-04-28T02:14:10;0.50;;;0.50;;
10216;SDS011;5152;59.674;16.838;2023-04-28T02:16:38;0.60;;;0.60;;
10216;SDS011;5152;59.674;16.838;2023-04-28T02:19:05;0.73;;;0.73;;
10216;SDS011;5152;59.674;16.838;2023-04-28T02:21:31;1.07;;;0.70;;
10216;SDS011;5152;59.674;16.838;2023-04-28T02:23:58;0.97;;;0.80;;
10216;SDS011;5152;59.674;16.838;2023-04-28T02:26:25;1.00;;;0.73;;
10216;SDS011;5152;59.674;16.838;2023-04-28T02:28:52;1.40;;;0.80;;
10216;SDS011;5152;59.674;16.838;2023-04-28T02:31:19;0.73;;;0.73;;
10216;SDS011;5152;59.674;16.838;2023-04-28T02:33:48;0.83;;;0.83;;
10216;SDS011;5152;59.674;16.838;2023-04-28T02:36:15;0.73;;;0.67;;
10216;SDS011;5152;59.674;16.838;2023-04-28T02:38:42;1.73;;;0.83;;
10216;SDS011;5152;59.674;16.838;2023-04-28T02:41:09;0.93;;;0.67;;
10216;SDS011;5152;59.674;16.838;2023-04-28T02:43:36;0.60;;;0.60;;
10216;SDS011;5152;59.674;16.838;2023-04-28T02:46:03;0.53;;;0.53;;
10216;SDS011;5152;59.674;16.838;2023-04-28T02:48:30;0.67;;;0.60;;
10216;SDS011;5152;59.674;16.838;2023-04-28T02:50:59;0.50;;;0.50;;
10216;SDS011;5152;59.674;16.838;2023-04-28T02:53:26;1.50;;;0.60;;
10216;SDS011;5152;59.674;16.838;2023-04-28T02:55:53;1.70;;;0.90;;
10216;SDS011;5152;59.674;16.838;2023-04-28T02:58:20;1.00;;;0.70;;
10216;SDS011;5152;59.674;16.838;2023-04-28T03:00:47;1.10;;;0.60;;
10216;SDS011;5152;59.674;16.838;2023-04-28T03:03:14;0.70;;;0.70;;
10216;SDS011;5152;59.674;16.838;2023-04-28T03:05:41;0.80;;;0.63;;
10216;SDS011;5152;59.674;16.838;2023-04-28T03:08:09;0.70;;;0.70;;
10216;SDS011;5152;59.674;16.838;2023-04-28T03:10:36;0.50;;;0.50;;
10216;SDS011;5152;59.674;16.838;2023-04-28T03:13:03;0.57;;;0.53;;
10216;SDS011;5152;59.674;16.838;2023-04-28T03:15:30;0.67;;;0.67;;
10216;SDS011;5152;59.674;16.838;2023-04-28T03:17:57;1.10;;;0.80;;
10216;SDS011;5152;59.674;16.838;2023-04-28T03:20:24;4.27;;;0.80;;
10216;SDS011;5152;59.674;16.838;2023-04-28T03:22:51;0.70;;;0.70;;
10216;SDS011;5152;59.674;16.838;2023-04-28T03:25:19;0.70;;;0.70;;
10216;SDS011;5152;59.674;16.838;2023-04-28T03:27:46;0.50;;;0.50;;
10216;SDS011;5152;59.674;16.838;2023-04-28T03:30:13;0.50;;;0.50;;
10216;SDS011;5152;59.674;16.838;2023-04-28T03:32:40;1.00;;;0.50;;
10216;SDS011;5152;59.674;16.838;2023-04-28T03:35:07;0.37;;;0.37;;
10216;SDS011;5152;59.674;16.838;2023-04-28T03:37:34;0.50;;;0.50;;
10216;SDS011;5152;59.674;16.838;2023-04-28T03:40:01;0.70;;;0.70;;
10216;SDS011;5152;59.674;16.838;2023-04-28T03:42:29;0.60;;;0.60;;
10216;SDS011;5152;59.674;16.838;2023-04-28T03:44:56;0.70;;;0.70;;
10216;SDS011;5152;59.674;16.838;2023-04-28T03:47:23;0.70;;;0.70;;
10216;SDS011;5152;59.674;16.838;2023-04-28T03:49:50;0.50;;;0.50;;
10216;SDS011;5152;59.674;16.838;2023-04-28T03:52:17;1.50;;;0.70;;
10216;SDS011;5152;59.674;16.838;2023-04-28T03:54:44;0.70;;;0.70;;
10216;SDS011;5152;59.674;16.838;2023-04-28T03:57:11;0.80;;;0.80;;
10216;SDS011;5152;59.674;16.838;2023-04-28T03:59:39;0.60;;;0.60;;
10216;SDS011;5152;59.674;16.838;2023-04-28T04:02:06;1.23;;;0.80;;
10216;SDS011;5152;59.674;16.838;2023-04-28T04:04:33;0.90;;;0.90;;
10216;SDS011;5152;59.674;16.838;2023-04-28T04:07:00;0.80;;;0.70;;
10216;SDS011;5152;59.674;16.838;2023-04-28T04:09:26;0.70;;;0.63;;
10216;SDS011;5152;59.674;16.838;2023-04-28T04:11:53;0.90;;;0.67;;
10216;SDS011;5152;59.674;16.838;2023-04-28T04:14:20;0.83;;;0.77;;
10216;SDS011;5152;59.674;16.838;2023-04-28T04:16:48;0.80;;;0.57;;
10216;SDS011;5152;59.674;16.838;2023-04-28T04:19:15;0.97;;;0.57;;
10216;SDS011;5152;59.674;16.838;2023-04-28T04:21:42;0.80;;;0.70;;
10216;SDS011;5152;59.674;16.838;2023-04-28T04:24:09;0.93;;;0.70;;
10216;SDS011;5152;59.674;16.838;2023-04-28T04:26:36;1.80;;;1.20;;
10216;SDS011;5152;59.674;16.838;2023-04-28T04:29:02;0.67;;;0.50;;
10216;SDS011;5152;59.674;16.838;2023-04-28T04:31:29;0.70;;;0.70;;
10216;SDS011;5152;59.674;16.838;2023-04-28T04:33:58;0.90;;;0.80;;
10216;SDS011;5152;59.674;16.838;2023-04-28T04:36:25;1.60;;;0.60;;
10216;SDS011;5152;59.674;16.838;2023-04-28T04:38:52;1.03;;;0.70;;
10216;SDS011;5152;59.674;16.838;2023-04-28T04:41:19;0.50;;;0.50;;
10216;SDS011;5152;59.674;16.838;2023-04-28T04:43:46;1.30;;;0.63;;
10216;SDS011;5152;59.674;16.838;2023-04-28T04:46:13;2.93;;;0.63;;
10216;SDS011;5152;59.674;16.838;2023-04-28T04:48:40;1.07;;;0.60;;
10216;SDS011;5152;59.674;16.838;2023-04-28T04:51:08;0.60;;;0.50;;
10216;SDS011;5152;59.674;16.838;2023-04-28T04:53:35;0.87;;;0.60;;
10216;SDS011;5152;59.674;16.838;2023-04-28T04:56:02;0.70;;;0.70;;
10216;SDS011;5152;59.674;16.838;2023-04-28T04:58:29;0.63;;;0.63;;
10216;SDS011;5152;59.674;16.838;2023-04-28T05:00:56;1.43;;;0.77;;
10216;SDS011;5152;59.674;16.838;2023-04-28T05:03:23;0.97;;;0.50;;
10216;SDS011;5152;59.674;16.838;2023-04-28T05:05:50;0.50;;;0.50;;
10216;SDS011;5152;59.674;16.838;2023-04-28T05:08:18;1.27;;;0.70;;
10216;SDS011;5152;59.674;16.838;2023-04-28T05:10:45;1.20;;;0.67;;
10216;SDS011;5152;59.674;16.838;2023-04-28T05:13:12;0.97;;;0.70;;
10216;SDS011;5152;59.674;16.838;2023-04-28T05:15:39;0.77;;;0.50;;
10216;SDS011;5152;59.674;16.838;2023-04-28T05:18:06;0.83;;;0.60;;
10216;SDS011;5152;59.674;16.838;2023-04-28T05:20:35;0.80;;;0.70;;
10216;SDS011;5152;59.674;16.838;2023-04-28T05:23:02;0.63;;;0.60;;
10216;SDS011;5152;59.674;16.838;2023-04-28T05:25:30;0.60;;;0.60;;
10216;SDS011;5152;59.674;16.838;2023-04-28T05:27:57;0.50;;;0.50;;
10216;SDS011;5152;59.674;16.838;2023-04-28T05:30:28;1.20;;;0.70;;
10216;SDS011;5152;59.674;16.838;2023-04-28T05:32:55;2.67;;;0.67;;
10216;SDS011;5152;59.674;16.838;2023-04-28T05:35:22;0.70;;;0.70;;
10216;SDS011;5152;59.674;16.838;2023-04-28T05:37:49;0.80;;;0.80;;
10216;SDS011;5152;59.674;16.838;2023-04-28T05:40:16;1.80;;;0.80;;
10216;SDS011;5152;59.674;16.838;2023-04-28T05:42:44;0.70;;;0.70;;
10216;SDS011;5152;59.674;16.838;2023-04-28T05:45:11;1.57;;;0.70;;
10216;SDS011;5152;59.674;16.838;2023-04-28T05:47:39;0.80;;;0.80;;
10216;SDS011;5152;59.674;16.838;2023-04-28T05:50:06;1.30;;;0.67;;
10216;SDS011;5152;59.674;16.838;2023-04-28T05:52:34;0.67;;;0.60;;
10216;SDS011;5152;59.674;16.838;2023-04-28T05:55:00;1.70;;;0.80;;
10216;SDS011;5152;59.674;16.838;2023-04-28T05:57:27;1.50;;;0.73;;
10216;SDS011;5152;59.674;16.838;2023-04-28T05:59:56;1.17;;;0.77;;
10216;SDS011;5152;59.674;16.838;2023-04-28T06:02:22;1.77;;;0.70;;
10216;SDS011;5152;59.674;16.838;2023-04-28T06:04:49;1.73;;;0.70;;
10216;SDS011;5152;59.674;16.838;2023-04-28T06:07:16;1.10;;;1.00;;
10216;SDS011;5152;59.674;16.838;2023-04-28T06:09:43;1.97;;;1.03;;
10216;SDS011;5152;59.674;16.838;2023-04-28T06:12:10;1.63;;;1.00;;
10216;SDS011;5152;59.674;16.838;2023-04-28T06:14:36;0.73;;;0.63;;
10216;SDS011;5152;59.674;16.838;2023-04-28T06:17:05;1.07;;;0.80;;
10216;SDS011;5152;59.674;16.838;2023-04-28T06:19:32;1.17;;;0.80;;
10216;SDS011;5152;59.674;16.838;2023-04-28T06:21:59;1.03;;;0.70;;
10216;SDS011;5152;59.674;16.838;2023-04-28T06:24:26;1.90;;;0.60;;
10216;SDS011;5152;59.674;16.838;2023-04-28T06:26:53;0.57;;;0.57;;
10216;SDS011;5152;59.674;16.838;2023-04-28T06:29:21;0.50;;;0.50;;
10216;SDS011;5152;59.674;16.838;2023-04-28T06:31:48;1.20;;;0.90;;
10216;SDS011;5152;59.674;16.838;2023-04-28T06:34:17;1.70;;;1.00;;
10216;SDS011;5152;59.674;16.838;2023-04-28T06:36:44;3.90;;;1.07;;
10216;SDS011;5152;59.674;16.838;2023-04-28T06:39:11;1.83;;;1.10;;
10216;SDS011;5152;59.674;16.838;2023-04-28T06:41:38;1.33;;;0.80;;
10216;SDS011;5152;59.674;16.838;2023-04-28T06:44:05;0.60;;;0.60;;
10216;SDS011;5152;59.674;16.838;2023-04-28T06:46:32;1.37;;;0.70;;
10216;SDS011;5152;59.674;16.838;2023-04-28T06:48:59;2.33;;;1.00;;
10216;SDS011;5152;59.674;16.838;2023-04-28T06:51:27;1.03;;;0.50;;
10216;SDS011;5152;59.674;16.838;2023-04-28T06:53:54;0.70;;;0.70;;
10216;SDS011;5152;59.674;16.838;2023-04-28T06:56:21;1.03;;;0.60;;
10216;SDS011;5152;59.674;16.838;2023-04-28T06:58:48;0.67;;;0.63;;
10216;SDS011;5152;59.674;16.838;2023-04-28T07:01:15;2.10;;;1.10;;
10216;SDS011;5152;59.674;16.838;2023-04-28T07:03:42;2.17;;;0.80;;
10216;SDS011;5152;59.674;16.838;2023-04-28T07:06:08;0.60;;;0.50;;
10216;SDS011;5152;59.674;16.838;2023-04-28T07:08:37;1.37;;;0.67;;
10216;SDS011;5152;59.674;16.838;2023-04-28T07:11:04;1.07;;;0.60;;
10216;SDS011;5152;59.674;16.838;2023-04-28T07:13:31;0.70;;;0.47;;
10216;SDS011;5152;59.674;16.838;2023-04-28T07:15:58;0.50;;;0.47;;
10216;SDS011;5152;59.674;16.838;2023-04-28T07:18:25;0.47;;;0.40;;
10216;SDS011;5152;59.674;16.838;2023-04-28T07:20:51;3.00;;;0.60;;
10216;SDS011;5152;59.674;16.838;2023-04-28T07:23:18;2.73;;;0.60;;
10216;SDS011;5152;59.674;16.838;2023-04-28T07:25:47;1.10;;;0.70;;
10216;SDS011;5152;59.674;16.838;2023-04-28T07:28:13;1.77;;;0.63;;
10216;SDS011;5152;59.674;16.838;2023-04-28T07:30:40;3.23;;;0.50;;
10216;SDS011;5152;59.674;16.838;2023-04-28T07:33:07;1.00;;;0.77;;
10216;SDS011;5152;59.674;16.838;2023-04-28T07:35:34;1.80;;;0.70;;
10216;SDS011;5152;59.674;16.838;2023-04-28T07:38:01;0.50;;;0.50;;
10216;SDS011;5152;59.674;16.838;2023-04-28T07:40:28;0.37;;;0.37;;
10216;SDS011;5152;59.674;16.838;2023-04-28T07:42:56;0.40;;;0.40;;
10216;SDS011;5152;59.674;16.838;2023-04-28T07:45:23;2.60;;;0.60;;
10216;SDS011;5152;59.674;16.838;2023-04-28T07:47:50;0.83;;;0.50;;
10216;SDS011;5152;59.674;16.838;2023-04-28T07:50:17;0.67;;;0.40;;
10216;SDS011;5152;59.674;16.838;2023-04-28T07:52:44;0.50;;;0.50;;
10216;SDS011;5152;59.674;16.838;2023-04-28T07:55:11;0.47;;;0.40;;
10216;SDS011;5152;59.674;16.838;2023-04-28T07:57:37;0.40;;;0.40;;
10216;SDS011;5152;59.674;16.838;2023-04-28T08:00:08;1.33;;;0.53;;
10216;SDS011;5152;59.674;16.838;2023-04-28T08:02:36;0.57;;;0.57;;
10216;SDS011;5152;59.674;16.838;2023-04-28T08:05:02;1.03;;;0.60;;
10216;SDS011;5152;59.674;16.838;2023-04-28T08:07:31;0.30;;;0.30;;
10216;SDS011;5152;59.674;16.838;2023-04-28T08:09:57;1.50;;;0.27;;
10216;SDS011;5152;59.674;16.838;2023-04-28T08:12:25;0.77;;;0.60;;
10216;SDS011;5152;59.674;16.838;2023-04-28T08:14:52;0.50;;;0.50;;
10216;SDS011;5152;59.674;16.838;2023-04-28T08:17:20;0.50;;;0.50;;
10216;SDS011;5152;59.674;16.838;2023-04-28T08:19:47;1.47;;;0.40;;
10216;SDS011;5152;59.674;16.838;2023-04-28T08:22:14;0.60;;;0.50;;
10216;SDS011;5152;59.674;16.838;2023-04-28T08:24:41;0.43;;;0.43;;
10216;SDS011;5152;59.674;16.838;2023-04-28T08:27:08;0.57;;;0.50;;
10216;SDS011;5152;59.674;16.838;2023-04-28T08:29:35;0.40;;;0.40;;
10216;SDS011;5152;59.674;16.838;2023-04-28T08:32:02;0.40;;;0.40;;
10216;SDS011;5152;59.674;16.838;2023-04-28T08:34:32;0.90;;;0.60;;
10216;SDS011;5152;59.674;16.838;2023-04-28T08:36:59;0.33;;;0.33;;
10216;SDS011;5152;59.674;16.838;2023-04-28T08:39:26;0.57;;;0.50;;
10216;SDS011;5152;59.674;16.838;2023-04-28T08:41:53;0.80;;;0.57;;
10216;SDS011;5152;59.674;16.838;2023-04-28T08:44:20;0.77;;;0.50;;
10216;SDS011;5152;59.674;16.838;2023-04-28T08:46:47;0.50;;;0.50;;
10216;SDS011;5152;59.674;16.838;2023-04-28T08:49:15;0.60;;;0.60;;
10216;SDS011;5152;59.674;16.838;2023-04-28T08:51:45;2.43;;;1.40;;
10216;SDS011;5152;59.674;16.838;2023-04-28T08:54:15;0.73;;;0.70;;
10216;SDS011;5152;59.674;16.838;2023-04-28T08:56:44;0.60;;;0.60;;
10216;SDS011;5152;59.674;16.838;2023-04-28T08:59:11;2.10;;;1.00;;
10216;SDS011;5152;59.674;16.838;2023-04-28T09:01:38;0.50;;;0.50;;
10216;SDS011;5152;59.674;16.838;2023-04-28T09:04:05;1.00;;;0.50;;
10216;SDS011;5152;59.674;16.838;2023-04-28T09:06:33;3.37;;;0.53;;
10216;SDS011;5152;59.674;16.838;2023-04-28T09:09:18;1.60;;;0.67;;
10216;SDS011;5152;59.674;16.838;2023-04-28T09:11:49;1.40;;;0.23;;
10216;SDS011;5152;59.674;16.838;2023-04-28T09:14:17;0.47;;;0.47;;
10216;SDS011;5152;59.674;16.838;2023-04-28T09:16:44;1.20;;;0.50;;
10216;SDS011;5152;59.674;16.838;2023-04-28T09:19:11;0.30;;;0.30;;
10216;SDS011;5152;59.674;16.838;2023-04-28T09:21:44;0.40;;;0.40;;
10216;SDS011;5152;59.674;16.838;2023-04-28T09:24:19;4.67;;;0.60;;
10216;SDS011;5152;59.674;16.838;2023-04-28T09:26:51;0.43;;;0.43;;
10216;SDS011;5152;59.674;16.838;2023-04-28T09:29:18;0.30;;;0.30;;
10216;SDS011;5152;59.674;16.838;2023-04-28T09:31:45;4.33;;;0.47;;
10216;SDS011;5152;59.674;16.838;2023-04-28T09:34:12;0.70;;;0.20;;
10216;SDS011;5152;59.674;16.838;2023-04-28T09:36:39;0.50;;;0.40;;
10216;SDS011;5152;59.674;16.838;2023-04-28T09:39:06;0.40;;;0.30;;
10216;SDS011;5152;59.674;16.838;2023-04-28T09:41:38;0.37;;;0.37;;
10216;SDS011;5152;59.674;16.838;2023-04-28T09:44:09;0.30;;;0.30;;
10216;SDS011;5152;59.674;16.838;2023-04-28T09:46:40;0.50;;;0.50;;
10216;SDS011;5152;59.674;16.838;2023-04-28T09:49:07;0.53;;;0.50;;
10216;SDS011;5152;59.674;16.838;2023-04-28T09:51:34;0.40;;;0.30;;
10216;SDS011;5152;59.674;16.838;2023-04-28T09:54:01;0.20;;;0.20;;
10216;SDS011;5152;59.674;16.838;2023-04-28T09:56:29;0.20;;;0.20;;
10216;SDS011;5152;59.674;16.838;2023-04-28T09:58:59;0.27;;;0.27;;
10216;SDS011;5152;59.674;16.838;2023-04-28T10:01:27;0.30;;;0.30;;
10216;SDS011;5152;59.674;16.838;2023-04-28T10:03:58;1.63;;;0.23;;
10216;SDS011;5152;59.674;16.838;2023-04-28T10:06:26;0.60;;;0.40;;
10216;SDS011;5152;59.674;16.838;2023-04-28T10:08:54;1.23;;;0.40;;
10216;SDS011;5152;59.674;16.838;2023-04-28T10:11:22;0.30;;;0.30;;
10216;SDS011;5152;59.674;16.838;2023-04-28T10:13:50;0.33;;;0.30;;
10216;SDS011;5152;59.674;16.838;2023-04-28T10:16:20;0.53;;;0.30;;
10216;SDS011;5152;59.674;16.838;2023-04-28T10:18:47;0.40;;;0.40;;
10216;SDS011;5152;59.674;16.838;2023-04-28T10:21:16;0.20;;;0.20;;
10216;SDS011;5152;59.674;16.838;2023-04-28T10:23:51;0.83;;;0.40;;
10216;SDS011;5152;59.674;16.838;2023-04-28T10:26:28;0.30;;;0.30;;
10216;SDS011;5152;59.674;16.838;2023-04-28T10:29:15;0.33;;;0.30;;
10216;SDS011;5152;59.674;16.838;2023-04-28T10:31:56;0.30;;;0.30;;
10216;SDS011;5152;59.674;16.838;2023-04-28T10:34:40;2.43;;;0.30;;
10216;SDS011;5152;59.674;16.838;2023-04-28T10:37:07;2.43;;;0.20;;
10216;SDS011;5152;59.674;16.838;2023-04-28T10:39:34;3.77;;;0.33;;
10216;SDS011;5152;59.674;16.838;2023-04-28T10:42:01;0.40;;;0.40;;
10216;SDS011;5152;59.674;16.838;2023-04-28T10:44:40;0.40;;;0.40;;
10216;SDS011;5152;59.674;16.838;2023-04-28T10:47:09;0.33;;;0.30;;
10216;SDS011;5152;59.674;16.838;2023-04-28T10:52:49;0.47;;;0.27;;
10216;SDS011;5152;59.674;16.838;2023-04-28T10:55:25;0.17;;;0.17;;
10216;SDS011;5152;59.674;16.838;2023-04-28T11:03:51;1.60;;;0.27;;
10216;SDS011;5152;59.674;16.838;2023-04-28T11:06:24;2.23;;;0.40;;
10216;SDS011;5152;59.674;16.838;2023-04-28T11:08:52;0.73;;;0.30;;
10216;SDS011;5152;59.674;16.838;2023-04-28T11:11:23;0.53;;;0.20;;
10216;SDS011;5152;59.674;16.838;2023-04-28T11:13:51;0.10;;;0.10;;
10216;SDS011;5152;59.674;16.838;2023-04-28T11:16:19;1.07;;;0.40;;
10216;SDS011;5152;59.674;16.838;2023-04-28T11:18:53;0.10;;;0.10;;
10216;SDS011;5152;59.674;16.838;2023-04-28T11:21:21;0.33;;;0.20;;
10216;SDS011;5152;59.674;16.838;2023-04-28T11:23:50;0.20;;;0.20;;
10216;SDS011;5152;59.674;16.838;2023-04-28T11:26:17;0.20;;;0.20;;
10216;SDS011;5152;59.674;16.838;2023-04-28T11:28:48;1.63;;;0.20;;
10216;SDS011;5152;59.674;16.838;2023-04-28T11:31:17;0.20;;;0.20;;
10216;SDS011;5152;59.674;16.838;2023-04-28T11:33:46;0.13;;;0.13;;
10216;SDS011;5152;59.674;16.838;2023-04-28T11:39:02;0.47;;;0.17;;
10216;SDS011;5152;59.674;16.838;2023-04-28T11:41:31;0.57;;;0.30;;
10216;SDS011;5152;59.674;16.838;2023-04-28T11:43:59;0.40;;;0.20;;
10216;SDS011;5152;59.674;16.838;2023-04-28T11:46:26;0.10;;;0.10;;
10216;SDS011;5152;59.674;16.838;2023-04-28T11:49:00;2.40;;;0.17;;
10216;SDS011;5152;59.674;16.838;2023-04-28T11:51:32;0.17;;;0.10;;
10216;SDS011;5152;59.674;16.838;2023-04-28T11:54:02;0.10;;;0.10;;
10216;SDS011;5152;59.674;16.838;2023-04-28T11:56:30;0.30;;;0.17;;
10216;SDS011;5152;59.674;16.838;2023-04-28T11:59:04;1.83;;;0.20;;
10216;SDS011;5152;59.674;16.838;2023-04-28T12:01:33;0.33;;;0.23;;
10216;SDS011;5152;59.674;16.838;2023-04-28T12:04:02;0.20;;;0.20;;
10216;SDS011;5152;59.674;16.838;2023-04-28T12:06:29;0.63;;;0.30;;
10216;SDS011;5152;59.674;16.838;2023-04-28T12:08:58;0.13;;;0.13;;
10216;SDS011;5152;59.674;16.838;2023-04-28T12:11:28;0.20;;;0.20;;
10216;SDS011;5152;59.674;16.838;2023-04-28T12:14:02;0.20;;;0.20;;
10216;SDS011;5152;59.674;16.838;2023-04-28T12:16:37;0.20;;;0.13;;
10216;SDS011;5152;59.674;16.838;2023-04-28T12:19:09;0.17;;;0.10;;
10216;SDS011;5152;59.674;16.838;2023-04-28T12:21:37;1.90;;;0.20;;
10216;SDS011;5152;59.674;16.838;2023-04-28T12:24:16;2.03;;;0.50;;
10216;SDS011;5152;59.674;16.838;2023-04-28T12:26:45;0.10;;;0.10;;
10216;SDS011;5152;59.674;16.838;2023-04-28T12:32:01;0.37;;;0.37;;
10216;SDS011;5152;59.674;16.838;2023-04-28T12:34:28;0.53;;;0.53;;
10216;SDS011;5152;59.674;16.838;2023-04-28T12:36:55;0.43;;;0.30;;
10216;SDS011;5152;59.674;16.838;2023-04-28T12:39:23;0.20;;;0.20;;
10216;SDS011;5152;59.674;16.838;2023-04-28T12:41:51;0.20;;;0.20;;
10216;SDS011;5152;59.674;16.838;2023-04-28T12:44:18;0.20;;;0.20;;
10216;SDS011;5152;59.674;16.838;2023-04-28T12:46:45;0.33;;;0.20;;
10216;SDS011;5152;59.674;16.838;2023-04-28T12:49:12;0.20;;;0.20;;
10216;SDS011;5152;59.674;16.838;2023-04-28T12:51:39;0.10;;;0.10;;
10216;SDS011;5152;59.674;16.838;2023-04-28T12:54:06;0.20;;;0.20;;
10216;SDS011;5152;59.674;16.838;2023-04-28T12:56:34;0.40;;;0.20;;
10216;SDS011;5152;59.674;16.838;2023-04-28T12:59:01;0.30;;;0.30;;
10216;SDS011;5152;59.674;16.838;2023-04-28T13:01:28;1.27;;;0.27;;
10216;SDS011;5152;59.674;16.838;2023-04-28T13:03:55;0.23;;;0.13;;
10216;SDS011;5152;59.674;16.838;2023-04-28T13:06:22;2.13;;;0.20;;
10216;SDS011;5152;59.674;16.838;2023-04-28T13:08:49;0.10;;;0.10;;
10216;SDS011;5152;59.674;16.838;2023-04-28T13:11:16;0.10;;;0.10;;
10216;SDS011;5152;59.674;16.838;2023-04-28T13:13:44;1.10;;;0.40;;
10216;SDS011;5152;59.674;16.838;2023-04-28T13:16:11;0.20;;;0.20;;
10216;SDS011;5152;59.674;16.838;2023-04-28T13:18:38;0.33;;;0.33;;
10216;SDS011;5152;59.674;16.838;2023-04-28T13:21:05;1.27;;;0.30;;
10216;SDS011;5152;59.674;16.838;2023-04-28T13:23:32;0.10;;;0.10;;
10216;SDS011;5152;59.674;16.838;2023-04-28T13:25:59;0.43;;;0.43;;
10216;SDS011;5152;59.674;16.838;2023-04-28T13:28:26;3.63;;;0.40;;
10216;SDS011;5152;59.674;16.838;2023-04-28T13:30:55;0.30;;;0.30;;
10216;SDS011;5152;59.674;16.838;2023-04-28T13:33:22;0.97;;;0.37;;
10216;SDS011;5152;59.674;16.838;2023-04-28T13:35:55;0.20;;;0.20;;
10216;SDS011;5152;59.674;16.838;2023-04-28T13:38:22;0.10;;;0.10;;
10216;SDS011;5152;59.674;16.838;2023-04-28T13:40:49;0.30;;;0.30;;
10216;SDS011;5152;59.674;16.838;2023-04-28T13:43:16;0.37;;;0.30;;
10216;SDS011;5152;59.674;16.838;2023-04-28T13:45:43;0.77;;;0.50;;
10216;SDS011;5152;59.674;16.838;2023-04-28T13:48:12;1.80;;;0.47;;
10216;SDS011;5152;59.674;16.838;2023-04-28T13:50:38;0.23;;;0.23;;
10216;SDS011;5152;59.674;16.838;2023-04-28T13:53:05;1.83;;;0.33;;
10216;SDS011;5152;59.674;16.838;2023-04-28T13:55:32;6.43;;;0.40;;
10216;SDS011;5152;59.674;16.838;2023-04-28T13:57:59;0.20;;;0.20;;
10216;SDS011;5152;59.674;16.838;2023-04-28T14:00:29;0.40;;;0.40;;
10216;SDS011;5152;59.674;16.838;2023-04-28T14:02:56;0.50;;;0.40;;
10216;SDS011;5152;59.674;16.838;2023-04-28T14:05:25;1.17;;;0.30;;
10216;SDS011;5152;59.674;16.838;2023-04-28T14:07:52;0.43;;;0.40;;
10216;SDS011;5152;59.674;16.838;2023-04-28T14:10:19;0.20;;;0.20;;
10216;SDS011;5152;59.674;16.838;2023-04-28T14:12:47;0.30;;;0.10;;
10216;SDS011;5152;59.674;16.838;2023-04-28T14:15:14;0.43;;;0.30;;
10216;SDS011;5152;59.674;16.838;2023-04-28T14:17:42;0.40;;;0.20;;
10216;SDS011;5152;59.674;16.838;2023-04-28T14:20:09;0.13;;;0.13;;
10216;SDS011;5152;59.674;16.838;2023-04-28T14:22:38;0.67;;;0.30;;
10216;SDS011;5152;59.674;16.838;2023-04-28T14:25:06;0.30;;;0.30;;
10216;SDS011;5152;59.674;16.838;2023-04-28T14:27:33;0.20;;;0.20;;
10216;SDS011;5152;59.674;16.838;2023-04-28T14:30:00;4.43;;;0.60;;
10216;SDS011;5152;59.674;16.838;2023-04-28T14:32:27;0.30;;;0.20;;
10216;SDS011;5152;59.674;16.838;2023-04-28T14:34:54;0.90;;;0.40;;
10216;SDS011;5152;59.674;16.838;2023-04-28T14:37:22;0.20;;;0.20;;
10216;SDS011;5152;59.674;16.838;2023-04-28T14:39:51;0.20;;;0.20;;
10216;SDS011;5152;59.674;16.838;2023-04-28T14:42:18;2.63;;;0.20;;
10216;SDS011;5152;59.674;16.838;2023-04-28T14:44:45;0.50;;;0.33;;
10216;SDS011;5152;59.674;16.838;2023-04-28T14:47:12;1.60;;;0.07;;
10216;SDS011;5152;59.674;16.838;2023-04-28T14:49:39;0.50;;;0.30;;
10216;SDS011;5152;59.674;16.838;2023-04-28T14:52:06;0.30;;;0.30;;
10216;SDS011;5152;59.674;16.838;2023-04-28T14:54:33;0.20;;;0.20;;
10216;SDS011;5152;59.674;16.838;2023-04-28T14:57:01;1.70;;;0.20;;
10216;SDS011;5152;59.674;16.838;2023-04-28T14:59:28;1.13;;;0.57;;
10216;SDS011;5152;59.674;16.838;2023-04-28T15:01:55;0.40;;;0.40;;
10216;SDS011;5152;59.674;16.838;2023-04-28T15:04:22;0.33;;;0.33;;
10216;SDS011;5152;59.674;16.838;2023-04-28T15:06:53;0.47;;;0.23;;